createdAt,value
2023-03-08T06:03:28.251Z,23.70
2023-03-08T06:05:55.516Z,23.98
2023-03-08T06:08:23.135Z,23.88
2023-03-08T06:10:50.292Z,24.20
2023-03-08T06:13:17.524Z,24.45
2023-03-08T06:15:44.338Z,24.63
2023-03-08T06:18:12.640Z,24.17
2023-03-08T06:20:40.539Z,26.52
2023-03-08T06:23:07.468Z,25.38
2023-03-08T06:25:34.186Z,25.05
2023-03-08T06:28:01.530Z,27.05
2023-03-08T06:30:38.240Z,25.05
2023-03-08T06:33:06.165Z,25.83
2023-03-08T06:35:32.805Z,27.00
2023-03-08T06:38:02.364Z,26.95
2023-03-08T06:40:30.451Z,25.90
2023-03-08T06:42:57.799Z,26.65
2023-03-08T06:45:24.386Z,25.58
2023-03-08T06:47:51.689Z,26.27
2023-03-08T06:50:18.778Z,28.50
2023-03-08T06:52:48.595Z,26.70
2023-03-08T06:55:19.718Z,27.15
2023-03-08T06:57:47.274Z,27.02
2023-03-08T07:00:14.457Z,26.85
2023-03-08T07:02:41.561Z,29.20
2023-03-08T07:05:08.575Z,27.08
2023-03-08T07:07:37.003Z,27.85
2023-03-08T07:10:04.352Z,27.75
2023-03-08T07:12:32.606Z,27.92
2023-03-08T07:14:59.234Z,26.65
2023-03-08T07:17:26.484Z,29.42
2023-03-08T07:19:53.047Z,29.45
2023-03-08T07:22:20.239Z,29.40
2023-03-08T07:24:49.675Z,28.42
2023-03-08T07:27:17.003Z,26.88
2023-03-08T07:29:43.610Z,26.15
2023-03-08T07:32:10.905Z,26.25
2023-03-08T07:34:37.507Z,24.77
2023-03-08T07:37:04.771Z,25.25
2023-03-08T07:39:31.385Z,25.65
2023-03-08T07:41:58.581Z,24.98
2023-03-08T07:44:27.063Z,24.75
2023-03-08T07:46:54.325Z,21.90
2023-03-08T07:49:20.888Z,23.40
2023-03-08T07:51:51.388Z,23.63
2023-03-08T07:54:18.029Z,23.17
2023-03-08T07:56:45.309Z,20.98
2023-03-08T07:59:11.897Z,21.90
2023-03-08T08:01:39.112Z,20.25
2023-03-08T08:04:07.785Z,20.75
2023-03-08T08:06:38.167Z,20.80
2023-03-08T08:09:05.753Z,19.85
2023-03-08T08:11:34.547Z,20.73
2023-03-08T08:14:01.769Z,19.80
2023-03-08T08:16:29.045Z,19.27
2023-03-08T08:18:55.637Z,17.42
2023-03-08T08:21:23.192Z,19.70
2023-03-08T08:23:49.770Z,19.85
2023-03-08T08:26:20.041Z,18.08
2023-03-08T08:28:49.693Z,19.60
2023-03-08T08:31:20.357Z,18.08
2023-03-08T08:33:47.521Z,18.00
2023-03-08T08:36:17.975Z,18.02
2023-03-08T08:38:46.124Z,17.55
2023-03-08T08:41:17.685Z,17.55
2023-03-08T08:43:45.734Z,17.98
2023-03-08T08:46:13.719Z,17.13
2023-03-08T08:48:40.645Z,20.58
2023-03-08T08:51:09.557Z,19.98
2023-03-08T08:53:37.054Z,23.90
2023-03-08T08:56:27.627Z,28.60
2023-03-08T08:58:57.352Z,26.45
2023-03-08T09:01:28.432Z,27.95
2023-03-08T09:03:55.667Z,24.08
2023-03-08T09:06:25.106Z,19.63
2023-03-08T09:08:54.738Z,19.42
2023-03-08T09:11:23.292Z,16.15
2023-03-08T09:13:49.881Z,14.98
2023-03-08T09:16:25.873Z,13.93
2023-03-08T09:18:53.070Z,15.23
2023-03-08T09:21:20.535Z,15.43
2023-03-08T09:23:47.234Z,15.00
2023-03-08T09:26:14.636Z,14.68
2023-03-08T09:28:41.338Z,13.20
2023-03-08T09:31:12.298Z,13.48
2023-03-08T09:33:40.297Z,14.85
2023-03-08T09:36:08.139Z,15.57
2023-03-08T09:38:35.119Z,14.38
2023-03-08T09:41:28.160Z,13.38
2023-03-08T09:44:17.727Z,14.27
2023-03-08T09:46:58.407Z,14.85
2023-03-08T09:49:32.579Z,15.13
2023-03-08T09:52:17.755Z,12.95
2023-03-08T09:54:46.406Z,11.23
2023-03-08T09:57:18.513Z,10.18
2023-03-08T09:59:56.234Z,8.52
2023-03-08T10:03:07.279Z,8.35
2023-03-08T10:05:54.734Z,8.02
2023-03-08T10:08:32.005Z,8.20
2023-03-08T10:11:07.672Z,8.07
2023-03-08T10:13:35.995Z,8.77
2023-03-08T10:16:12.374Z,8.68
2023-03-08T10:18:46.331Z,9.00
2023-03-08T10:21:17.696Z,8.95
2023-03-08T10:23:47.164Z,8.27
2023-03-08T10:26:16.412Z,8.18
2023-03-08T10:28:43.730Z,9.10
2023-03-08T10:31:23.239Z,8.23
2023-03-08T10:34:16.745Z,7.78
2023-03-08T10:36:58.292Z,4.45
2023-03-08T10:39:25.559Z,3.72
2023-03-08T10:41:58.934Z,3.85
2023-03-08T10:44:36.808Z,4.20
2023-03-08T10:47:21.577Z,4.35
2023-03-08T10:49:48.876Z,6.57
2023-03-08T10:52:25.221Z,4.75
2023-03-08T10:55:16.221Z,5.47
2023-03-08T10:57:58.149Z,4.97
2023-03-08T11:00:32.412Z,4.97
2023-03-08T11:03:03.407Z,4.43
2023-03-08T11:05:30.936Z,4.57
2023-03-08T11:07:59.496Z,4.28
2023-03-08T11:10:29.245Z,5.03
2023-03-08T11:13:06.481Z,4.22
2023-03-08T11:15:38.274Z,4.47
2023-03-08T11:18:28.138Z,4.43
2023-03-08T11:21:01.103Z,3.70
2023-03-08T11:23:32.438Z,3.63
2023-03-08T11:26:08.353Z,4.15
2023-03-08T11:28:49.786Z,5.57
2023-03-08T11:31:20.080Z,6.07
2023-03-08T11:34:33.341Z,4.68
2023-03-08T11:37:15.389Z,3.67
2023-03-08T11:39:52.849Z,3.13
2023-03-08T11:42:34.784Z,3.90
2023-03-08T11:45:49.610Z,3.00
2023-03-08T11:48:19.104Z,3.47
2023-03-08T11:51:10.521Z,3.10
2023-03-08T11:54:07.889Z,3.33
2023-03-08T11:56:46.849Z,3.60
2023-03-08T11:59:21.153Z,3.53
2023-03-08T12:01:56.567Z,3.83
2023-03-08T12:04:40.782Z,3.30
2023-03-08T12:07:23.739Z,3.63
2023-03-08T12:10:04.521Z,3.85
2023-03-08T12:12:37.454Z,3.72
2023-03-08T12:15:16.553Z,3.85
2023-03-08T12:17:50.363Z,3.95
2023-03-08T12:20:20.217Z,3.83
2023-03-08T12:22:55.644Z,3.40
2023-03-08T12:25:26.805Z,3.03
2023-03-08T12:27:56.657Z,3.20
2023-03-08T12:30:40.266Z,3.22
2023-03-08T12:33:11.357Z,3.00
2023-03-08T12:35:59.833Z,2.30
2023-03-08T12:38:30.932Z,2.00
2023-03-08T12:40:58.317Z,2.10
2023-03-08T12:43:24.830Z,2.13
2023-03-08T12:46:05.010Z,1.92
2023-03-08T12:48:59.503Z,2.05
2023-03-08T12:51:33.808Z,1.60
2023-03-08T12:54:03.997Z,2.10
2023-03-08T12:56:49.770Z,2.15
2023-03-08T12:59:16.252Z,2.00
2023-03-08T13:02:00.217Z,2.03
2023-03-08T13:04:41.825Z,2.55
2023-03-08T13:07:12.897Z,2.10
2023-03-08T13:09:42.573Z,2.63
2023-03-08T13:12:15.539Z,2.65
2023-03-08T13:14:47.018Z,2.70
2023-03-08T13:17:32.789Z,2.28
2023-03-08T13:20:11.437Z,2.10
2023-03-08T13:23:02.709Z,3.20
2023-03-08T13:25:35.376Z,2.65
2023-03-08T13:28:15.403Z,3.50
2023-03-08T13:30:49.719Z,3.25
2023-03-08T13:33:37.357Z,3.10
2023-03-08T13:36:05.544Z,2.97
2023-03-08T13:38:35.385Z,3.10
2023-03-08T13:41:02.424Z,3.38
2023-03-08T13:43:32.354Z,3.47
2023-03-08T13:48:31.022Z,3.95
2023-03-08T13:50:59.828Z,3.15
2023-03-08T13:53:33.834Z,2.83
2023-03-08T13:56:03.470Z,3.50
2023-03-08T13:58:37.583Z,3.45
2023-03-08T14:01:15.347Z,3.40
2023-03-08T14:03:44.065Z,3.10
2023-03-08T14:06:23.727Z,3.28
2023-03-08T14:08:51.880Z,3.60
2023-03-08T14:11:22.084Z,3.38
2023-03-08T14:13:53.081Z,3.40
2023-03-08T14:16:32.248Z,3.40
2023-03-08T14:19:08.593Z,3.47
2023-03-08T14:21:35.483Z,3.25
2023-03-08T14:24:07.092Z,3.78
2023-03-08T14:26:36.819Z,3.20
2023-03-08T14:29:19.850Z,4.10
2023-03-08T14:31:59.615Z,3.22
2023-03-08T14:34:28.570Z,3.28
2023-03-08T14:37:01.511Z,3.05
2023-03-08T14:39:30.679Z,2.60
2023-03-08T14:41:57.525Z,3.17
2023-03-08T14:44:28.589Z,3.00
2023-03-08T14:46:58.647Z,3.25
2023-03-08T14:49:29.006Z,2.88
2023-03-08T14:51:56.274Z,2.97
2023-03-08T14:54:33.185Z,3.03
2023-03-08T14:57:15.896Z,3.47
2023-03-08T14:59:43.705Z,3.67
2023-03-08T15:02:12.734Z,3.67
2023-03-08T15:04:40.251Z,3.90
2023-03-08T15:07:07.790Z,3.80
2023-03-08T15:09:34.894Z,3.45
2023-03-08T15:12:02.371Z,3.70
2023-03-08T15:14:30.513Z,3.92
2023-03-08T15:16:58.539Z,4.35
2023-03-08T15:19:25.286Z,3.75
2023-03-08T15:21:52.751Z,4.20
2023-03-08T15:24:19.793Z,3.83
2023-03-08T15:26:47.217Z,4.13
2023-03-08T15:29:40.390Z,4.50
2023-03-08T15:32:08.104Z,3.78
2023-03-08T15:34:35.546Z,3.45
2023-03-08T15:37:02.957Z,2.97
2023-03-08T15:39:29.653Z,4.25
2023-03-08T15:41:56.837Z,3.90
2023-03-08T15:44:23.411Z,4.03
2023-03-08T15:46:52.750Z,4.40
2023-03-08T15:49:19.579Z,5.20
2023-03-08T15:51:46.793Z,4.30
2023-03-08T15:54:13.399Z,4.35
2023-03-08T15:56:40.645Z,4.78
2023-03-08T15:59:07.418Z,5.75
2023-03-08T16:01:34.662Z,4.85
2023-03-08T16:04:01.514Z,4.78
2023-03-08T16:06:28.418Z,5.28
2023-03-08T16:08:55.033Z,7.70
2023-03-08T16:11:22.683Z,7.55
2023-03-08T16:13:53.607Z,7.00
2023-03-08T16:16:22.088Z,4.50
2023-03-08T16:18:49.241Z,4.47
2023-03-08T16:21:16.720Z,5.68
2023-03-08T16:23:43.658Z,6.10
2023-03-08T16:26:17.009Z,5.82
2023-03-08T16:28:46.911Z,5.75
2023-03-08T16:31:15.022Z,4.68
2023-03-08T16:33:42.292Z,5.07
2023-03-08T16:36:09.223Z,4.82
2023-03-08T16:38:36.276Z,5.20
2023-03-08T16:41:12.148Z,5.18
2023-03-08T16:43:46.350Z,5.70
2023-03-08T16:46:17.678Z,5.30
2023-03-08T16:48:45.073Z,4.75
2023-03-08T16:51:14.743Z,5.45
2023-03-08T16:53:42.297Z,4.75
2023-03-08T16:56:16.339Z,5.82
2023-03-08T16:58:43.394Z,6.38
2023-03-08T17:01:12.008Z,6.68
2023-03-08T17:03:39.196Z,7.13
2023-03-08T17:06:11.684Z,6.78
2023-03-08T17:08:39.003Z,6.30
2023-03-08T17:11:06.104Z,7.47
2023-03-08T17:13:33.648Z,6.97
2023-03-08T17:16:00.661Z,6.72
2023-03-08T17:18:27.287Z,7.88
2023-03-08T17:20:54.254Z,6.10
2023-03-08T17:23:20.893Z,6.63
2023-03-08T17:25:47.806Z,5.50
2023-03-08T17:28:16.009Z,6.60
2023-03-08T17:30:43.427Z,7.45
2023-03-08T17:33:12.613Z,6.00
2023-03-08T17:35:41.367Z,8.57
2023-03-08T17:38:08.233Z,8.38
2023-03-08T17:40:35.688Z,7.75
2023-03-08T17:43:02.804Z,7.65
2023-03-08T17:45:30.098Z,6.88
2023-03-08T17:48:01.177Z,6.68
2023-03-08T17:50:31.729Z,7.88
2023-03-08T17:52:58.846Z,7.68
2023-03-08T17:55:26.525Z,8.45
2023-03-08T17:57:53.185Z,7.53
2023-03-08T18:00:21.284Z,7.07
2023-03-08T18:02:48.017Z,7.90
2023-03-08T18:05:14.974Z,7.90
2023-03-08T18:07:41.981Z,8.23
2023-03-08T18:10:11.272Z,8.02
2023-03-08T18:12:37.835Z,7.85
2023-03-08T18:15:04.957Z,9.13
2023-03-08T18:17:34.083Z,8.65
2023-03-08T18:20:01.966Z,8.40
2023-03-08T18:22:28.494Z,8.30
2023-03-08T18:24:55.667Z,9.18
2023-03-08T18:27:22.293Z,9.32
2023-03-08T18:29:49.357Z,11.23
2023-03-08T18:32:15.884Z,9.20
2023-03-08T18:34:43.078Z,9.43
2023-03-08T18:37:09.649Z,9.90
2023-03-08T18:39:36.898Z,9.68
2023-03-08T18:42:03.569Z,9.35
2023-03-08T18:44:30.789Z,9.75
2023-03-08T18:46:57.462Z,8.25
2023-03-08T18:49:24.489Z,9.05
2023-03-08T18:51:51.150Z,9.00
2023-03-08T18:54:20.938Z,11.25
2023-03-08T18:56:53.690Z,9.88
2023-03-08T18:59:21.776Z,10.32
2023-03-08T19:01:52.052Z,10.35
2023-03-08T19:04:19.572Z,10.13
2023-03-08T19:06:46.392Z,9.50
2023-03-08T19:09:16.268Z,9.25
2023-03-08T19:11:43.197Z,9.32
2023-03-08T19:14:12.523Z,9.73
2023-03-08T19:16:39.483Z,10.35
2023-03-08T19:19:11.990Z,9.52
2023-03-08T19:21:43.788Z,9.38
2023-03-08T19:24:15.697Z,9.25
2023-03-08T19:26:47.003Z,9.82
2023-03-08T19:29:15.769Z,11.57
2023-03-08T19:31:50.545Z,10.05
2023-03-08T19:34:19.329Z,9.52
2023-03-08T19:36:46.973Z,9.45
2023-03-08T19:39:17.026Z,8.38
2023-03-08T19:41:44.367Z,9.30
2023-03-08T19:44:11.644Z,9.25
2023-03-08T19:46:39.246Z,9.98
2023-03-08T19:49:08.746Z,10.02
2023-03-08T19:51:35.486Z,10.18
2023-03-08T19:54:03.464Z,11.90
2023-03-08T19:56:30.124Z,10.90
2023-03-08T19:58:57.262Z,10.35
2023-03-08T20:01:24.590Z,10.40
2023-03-08T20:03:51.774Z,11.77
2023-03-08T20:06:24.776Z,11.55
2023-03-08T20:08:53.015Z,11.40
2023-03-08T20:11:21.167Z,12.05
2023-03-08T20:13:47.789Z,11.82
2023-03-08T20:16:15.540Z,12.30
2023-03-08T20:18:42.134Z,12.95
2023-03-08T20:21:09.402Z,11.75
2023-03-08T20:23:35.977Z,10.93
2023-03-08T20:26:04.578Z,12.65
2023-03-08T20:28:31.137Z,13.57
2023-03-08T20:30:58.405Z,12.27
2023-03-08T20:33:25.114Z,13.93
2023-03-08T20:35:59.929Z,12.82
2023-03-08T20:38:27.270Z,13.82
2023-03-08T20:41:12.237Z,13.18
2023-03-08T20:43:39.486Z,15.13
2023-03-08T20:46:09.760Z,15.63
2023-03-08T20:48:38.590Z,14.98
2023-03-08T20:51:07.993Z,15.38
2023-03-08T20:53:34.968Z,16.92
2023-03-08T20:56:10.371Z,15.63
2023-03-08T20:58:36.978Z,15.23
2023-03-08T21:01:15.546Z,15.13
2023-03-08T21:03:42.320Z,15.40
2023-03-08T21:06:16.104Z,15.15
2023-03-08T21:08:43.016Z,14.68
2023-03-08T21:11:09.995Z,16.02
2023-03-08T21:13:37.737Z,15.48
2023-03-08T21:16:07.300Z,15.38
2023-03-08T21:18:34.644Z,17.00
2023-03-08T21:21:01.383Z,15.90
2023-03-08T21:23:29.391Z,16.98
2023-03-08T21:26:00.223Z,18.77
2023-03-08T21:28:27.011Z,17.73
